Flight Track Log - Related Links

Times and Time Zones

All times are in EDT time to prevent confusion due to time zone crossing. See the QXE2594 flight status page for this flight to view local times or setup timezone preferences in your user account.


Time Position Orientation Groundspeed Altitude Reporting Facility
EDT Latitude Longitude Course Direction KTS MPH feet Rate Location/Type
Wed 04:42:00 PM 47.5500 -121.6438 90° East  Level FlightAware Approximate
Wed 04:43:00 PM 47.5500 -121.5291 90° East  Level FlightAware Approximate
Wed 04:44:00 PM 47.5500 -121.4144 90° East  Level FlightAware Approximate
Wed 04:45:00 PM 47.5500 -121.2996 90° East  Level FlightAware Approximate
Wed 04:46:00 PM 47.5500 -121.1849 90° East  Level FlightAware Approximate
Wed 04:47:00 PM 47.5500 -121.0702 90° East  Level FlightAware Approximate
Wed 04:48:00 PM 47.5493 -120.9555 92° East  Level FlightAware Approximate
Wed 04:49:00 PM 47.5461 -120.8409 92° East  Level FlightAware Approximate
Wed 04:50:00 PM 47.5428 -120.7262 92° East  Level FlightAware Approximate
Wed 04:51:00 PM 47.5394 -120.6116 92° East  Level FlightAware Approximate
Wed 04:52:00 PM 47.5359 -120.4971 93° East  Level FlightAware Approximate
Wed 04:53:00 PM 47.5316 -120.3826 94° East  Level FlightAware Approximate
Wed 04:54:00 PM 47.5256 -120.2682 94° East  Level FlightAware Approximate
Wed 04:55:00 PM 47.5196 -120.1539 94° East  Level FlightAware Approximate
Wed 04:56:00 PM 47.5137 -120.0396 94° East  Level FlightAware Approximate
Wed 04:57:00 PM 47.5079 -119.9253 94° East  Level FlightAware Approximate
Wed 04:58:00 PM 47.5020 -119.8110 94° East  Level FlightAware Approximate
Wed 04:59:00 PM 47.4960 -119.6967 94° East  Level FlightAware Approximate
Wed 05:00:00 PM 47.4899 -119.5825 94° East  Level FlightAware Approximate
Wed 05:01:00 PM 47.4837 -119.4682 95° East  Level FlightAware Approximate
Wed 05:02:00 PM 47.4773 -119.3541 95° East  Level FlightAware Approximate
Wed 05:03:00 PM 47.4709 -119.2399 95° East  Level FlightAware Approximate
Wed 05:04:00 PM 47.4636 -119.1259 96° East  Level FlightAware Approximate
Wed 05:05:00 PM 47.4548 -119.0121 96° East  Level FlightAware Approximate
Wed 05:06:00 PM 47.4470 -118.8982 95° East  Level FlightAware Approximate
Wed 05:07:00 PM 47.4403 -118.7841 95° East  Level FlightAware Approximate
Wed 05:08:00 PM 47.4335 -118.6701 95° East  Level FlightAware Approximate
Wed 05:09:00 PM 47.4333 -118.5556 90° East  Level FlightAware Approximate
Wed 05:10:00 PM 47.4276 -118.4416 96° East  Level FlightAware Approximate
Wed 05:11:00 PM 47.4188 -118.3279 96° East  Level FlightAware Approximate
Wed 05:12:00 PM 47.4279 -118.2163 72° East  Level FlightAware Approximate
Wed 05:13:00 PM 47.4521 -118.1076 72° East  Level FlightAware Approximate
Wed 05:14:00 PM 47.4762 -117.9987 72° East  Level FlightAware Approximate
Wed 05:15:00 PM 47.5059 -117.8931 70° East  Level FlightAware Approximate
Wed 05:16:00 PM 47.5328 -117.7856 70° East  Level FlightAware Approximate
Wed 05:17:00 PM 47.5649 -117.6813 67° East  Level FlightAware Approximate
Wed 05:18:00 PM 47.5987 -117.5783 59° Northeast  Level FlightAware Approximate
Wed 05:19:00 PM 47.6167 -117.5333 59° Northeast  Level FlightAware Approximate
Wed 05:20:00 PM 47.6190 -117.5352 59° Northeast  Level Estimated
Wed 05:21:00 PM 47.6167 -117.5333 59° Northeast  Level FlightAware Approximate
Wed 05:22:00 PM 47.6190 -117.5352 59° Northeast  Level Estimated
Wed 05:23:00 PM 47.6167 -117.5333 59° Northeast  Level FlightAware Approximate
Wed 05:24:00 PM 47.6190 -117.5352 59° Northeast  Level Estimated
Wed 05:25:00 PM 47.6167 -117.5333 59° Northeast  Level FlightAware Approximate
Wed 05:26:00 PM 47.6190 -117.5352 59° Northeast  Level Estimated
Wed 05:27:00 PM 47.6167 -117.5333 59° Northeast  Level FlightAware Approximate
Wed 05:28:00 PM 47.6190 -117.5352 59° Northeast  Level Estimated
Wed 05:29:00 PM 47.6167 -117.5333 59° Northeast  Level FlightAware Approximate
Wed 05:30:00 PM 47.6190 -117.5352 59° Northeast  Level Estimated
Wed 05:31:00 PM 47.6167 -117.5333 59° Northeast  Level FlightAware Approximate
Wed 05:32:00 PM 47.6190 -117.5352 59° Northeast  Level Estimated
Wed 05:33:00 PM 47.6167 -117.5333 59° Northeast  Level FlightAware Approximate
Wed 05:34:00 PM 47.6190 -117.5352 59° Northeast  Level Estimated

Login

Don't have an account? Register now (free) for customized features, flight alerts, and more!